createdAt,value
2019-01-28T00:01:05.788Z,0.97
2019-01-28T00:03:35.644Z,1.02
2019-01-28T00:06:05.563Z,1.02
2019-01-28T00:08:36.637Z,1.18
2019-01-28T00:11:06.497Z,1.27
2019-01-28T00:13:36.299Z,1.35
2019-01-28T00:16:06.089Z,1.25
2019-01-28T00:18:36.502Z,1.25
2019-01-28T00:21:06.302Z,1.15
2019-01-28T00:23:36.096Z,1.07
2019-01-28T00:26:05.924Z,1.08
2019-01-28T00:28:36.562Z,1.06
2019-01-28T00:31:06.517Z,1.07
2019-01-28T00:33:36.314Z,1.06
2019-01-28T00:36:06.137Z,1.10
2019-01-28T00:38:35.976Z,1.07
2019-01-28T00:41:05.698Z,1.08
2019-01-28T00:43:35.406Z,1.04
2019-01-28T00:46:05.376Z,1.11
2019-01-28T00:48:35.178Z,1.12
2019-01-28T00:51:04.925Z,1.12
2019-01-28T00:53:34.704Z,1.07
2019-01-28T00:56:04.497Z,1.07
2019-01-28T00:58:34.218Z,1.18
2019-01-28T01:01:03.931Z,1.13
2019-01-28T01:03:33.628Z,1.21
2019-01-28T01:06:03.397Z,1.12
2019-01-28T01:08:33.222Z,1.07
2019-01-28T01:11:03.304Z,1.04
2019-01-28T01:13:33.182Z,1.05
2019-01-28T01:16:03.038Z,1.05
2019-01-28T01:18:32.756Z,1.04
2019-01-28T01:21:02.583Z,1.06
2019-01-28T01:23:32.364Z,1.07
2019-01-28T01:26:02.248Z,1.08
2019-01-28T01:28:31.973Z,1.09
2019-01-28T01:31:01.764Z,1.11
2019-01-28T01:33:31.585Z,1.13
2019-01-28T01:36:01.321Z,1.14
2019-01-28T01:38:31.050Z,1.15
2019-01-28T01:41:00.940Z,1.19
2019-01-28T01:43:30.661Z,1.20
2019-01-28T01:46:00.452Z,1.23
2019-01-28T01:48:30.268Z,1.24
2019-01-28T01:50:59.973Z,1.24
2019-01-28T01:53:29.737Z,1.26
2019-01-28T01:55:59.478Z,1.28
2019-01-28T01:58:29.074Z,1.27
2019-01-28T02:01:00.559Z,1.27
2019-01-28T02:03:30.325Z,1.23
2019-01-28T02:06:00.039Z,1.22
2019-01-28T02:08:29.902Z,1.20
2019-01-28T02:10:59.715Z,1.20
2019-01-28T02:13:29.546Z,1.22
2019-01-28T02:15:59.336Z,1.24
2019-01-28T02:18:29.160Z,1.24
2019-01-28T02:20:58.898Z,1.24
2019-01-28T02:23:28.605Z,1.46
2019-01-28T02:25:58.243Z,1.37
2019-01-28T02:28:28.060Z,1.29
2019-01-28T02:30:57.994Z,1.38
2019-01-28T02:33:27.751Z,1.30
2019-01-28T02:35:57.498Z,1.25
2019-01-28T02:38:27.209Z,1.24
2019-01-28T02:40:56.959Z,1.16
2019-01-28T02:43:26.717Z,1.11
2019-01-28T02:45:56.415Z,1.09
2019-01-28T02:48:26.209Z,1.12
2019-01-28T02:50:56.079Z,1.13
2019-01-28T02:53:26.476Z,1.17
2019-01-28T02:55:56.232Z,1.18
2019-01-28T02:58:26.086Z,1.19
2019-01-28T03:00:55.814Z,1.22
2019-01-28T03:03:25.465Z,1.24
2019-01-28T03:05:55.264Z,1.32
2019-01-28T03:08:25.040Z,1.25
2019-01-28T03:10:54.731Z,1.25
2019-01-28T03:13:24.479Z,1.17
2019-01-28T03:15:54.231Z,1.17
2019-01-28T03:18:24.019Z,1.17
2019-01-28T03:20:53.808Z,1.17
2019-01-28T03:23:25.304Z,1.23
2019-01-28T03:25:55.327Z,1.19
2019-01-28T03:28:25.120Z,1.21
2019-01-28T03:30:54.955Z,1.23
2019-01-28T03:33:24.689Z,1.24
2019-01-28T03:35:54.390Z,1.29
2019-01-28T03:38:24.126Z,1.32
2019-01-28T03:40:54.109Z,1.25
2019-01-28T03:43:23.941Z,1.23
2019-01-28T03:45:53.761Z,1.22
2019-01-28T03:48:23.707Z,1.23
2019-01-28T03:50:53.501Z,1.26
2019-01-28T03:53:23.398Z,1.26
2019-01-28T03:55:53.095Z,1.26
2019-01-28T03:58:23.202Z,1.21
2019-01-28T04:00:53.070Z,1.21
2019-01-28T04:03:22.869Z,1.23
2019-01-28T04:05:52.647Z,1.18
2019-01-28T04:08:22.472Z,1.19
2019-01-28T04:10:52.175Z,1.13
2019-01-28T04:13:21.859Z,1.11
2019-01-28T04:15:51.720Z,1.13
2019-01-28T04:18:21.420Z,1.11
2019-01-28T04:20:51.188Z,1.14
2019-01-28T04:23:20.921Z,1.19
2019-01-28T04:25:50.746Z,1.27
2019-01-28T04:28:20.475Z,1.33
2019-01-28T04:30:50.207Z,1.38
2019-01-28T04:33:20.486Z,1.33
2019-01-28T04:35:50.361Z,1.33
2019-01-28T04:38:20.125Z,1.33
2019-01-28T04:40:49.925Z,1.31
2019-01-28T04:43:19.758Z,1.31
2019-01-28T04:45:49.569Z,1.31
2019-01-28T04:48:19.320Z,1.15
2019-01-28T04:50:49.139Z,1.11
2019-01-28T04:53:18.932Z,1.11
2019-01-28T04:55:48.978Z,1.17
2019-01-28T04:58:18.661Z,1.13
2019-01-28T05:00:48.551Z,1.09
2019-01-28T05:03:18.490Z,1.22
2019-01-28T05:05:48.321Z,1.22
2019-01-28T05:08:17.951Z,1.16
2019-01-28T05:10:47.751Z,1.14
2019-01-28T05:13:17.487Z,1.15
2019-01-28T05:15:47.189Z,1.21
2019-01-28T05:18:17.023Z,1.17
2019-01-28T05:20:46.720Z,1.13
2019-01-28T05:23:16.527Z,1.24
2019-01-28T05:25:46.391Z,1.20
2019-01-28T05:28:16.100Z,1.22
2019-01-28T05:30:45.825Z,0.46
2019-01-28T05:33:15.641Z,1.24
2019-01-28T05:35:45.495Z,1.42
2019-01-28T05:38:15.361Z,1.32
2019-01-28T05:40:45.197Z,1.32
2019-01-28T05:43:15.018Z,1.38
2019-01-28T05:45:44.864Z,1.38
2019-01-28T05:48:14.688Z,1.40
2019-01-28T05:50:44.488Z,1.40
2019-01-28T05:53:14.287Z,1.28
2019-01-28T05:55:44.122Z,1.29
2019-01-28T05:58:13.933Z,1.26
2019-01-28T06:00:44.313Z,1.34
2019-01-28T06:03:14.183Z,1.29
2019-01-28T06:05:43.918Z,1.22
2019-01-28T06:08:13.709Z,1.18
2019-01-28T06:10:43.459Z,1.20
2019-01-28T06:13:13.356Z,1.22
2019-01-28T06:15:43.167Z,1.24
2019-01-28T06:18:12.796Z,1.28
2019-01-28T06:20:42.548Z,1.29
2019-01-28T06:23:12.287Z,1.29
2019-01-28T06:25:43.392Z,1.29
2019-01-28T06:28:13.163Z,1.27
2019-01-28T06:30:42.934Z,1.30
2019-01-28T06:33:12.754Z,1.34
2019-01-28T06:35:42.472Z,1.34
2019-01-28T06:38:12.280Z,1.32
2019-01-28T06:40:42.856Z,1.32
2019-01-28T06:43:12.648Z,1.36
2019-01-28T06:45:42.447Z,1.40
2019-01-28T06:48:12.168Z,1.41
2019-01-28T06:50:41.981Z,1.41
2019-01-28T06:53:11.830Z,1.44
2019-01-28T06:55:41.646Z,1.47
2019-01-28T06:58:12.440Z,1.46
2019-01-28T07:00:42.136Z,1.48
2019-01-28T07:03:11.991Z,2.09
2019-01-28T07:05:41.825Z,3.12
2019-01-28T07:08:11.630Z,3.88
2019-01-28T07:10:41.425Z,4.10
2019-01-28T07:13:11.348Z,4.28
2019-01-28T07:15:41.121Z,4.10
2019-01-28T07:18:11.126Z,3.71
2019-01-28T07:20:41.029Z,4.24
2019-01-28T07:23:10.852Z,3.87
2019-01-28T07:25:40.816Z,3.39
2019-01-28T07:28:10.570Z,2.98
2019-01-28T07:30:40.365Z,2.66
2019-01-28T07:33:11.078Z,2.48
2019-01-28T07:35:40.882Z,2.43
2019-01-28T07:38:10.878Z,2.30
2019-01-28T07:40:40.676Z,2.14
2019-01-28T07:43:10.472Z,2.06
2019-01-28T07:45:45.344Z,1.99
2019-01-28T07:48:13.155Z,1.96
2019-01-28T07:50:43.073Z,1.97
2019-01-28T07:53:13.186Z,2.00
2019-01-28T07:55:42.886Z,2.02
2019-01-28T07:58:13.178Z,2.09
2019-01-28T08:00:42.928Z,2.09
2019-01-28T08:03:12.749Z,2.11
2019-01-28T08:05:42.516Z,2.18
2019-01-28T08:08:12.242Z,2.20
2019-01-28T08:10:43.698Z,2.20
2019-01-28T08:13:13.565Z,2.21
2019-01-28T08:15:43.350Z,2.19
2019-01-28T08:18:13.305Z,2.20
2019-01-28T08:20:43.146Z,2.18
2019-01-28T08:23:12.920Z,2.16
2019-01-28T08:25:42.687Z,2.14
2019-01-28T08:28:12.436Z,2.21
2019-01-28T08:30:42.165Z,2.24
2019-01-28T08:33:12.004Z,2.28
2019-01-28T08:35:41.730Z,2.36
2019-01-28T08:38:11.468Z,2.42
2019-01-28T08:40:41.231Z,2.51
2019-01-28T08:43:10.986Z,2.58
2019-01-28T08:45:40.841Z,2.64
2019-01-28T08:48:18.004Z,2.73
2019-01-28T08:50:42.094Z,2.82
2019-01-28T08:53:11.874Z,2.94
2019-01-28T08:55:41.619Z,3.16
2019-01-28T08:58:11.412Z,3.24
2019-01-28T09:00:41.600Z,3.37
2019-01-28T09:03:11.515Z,3.56
2019-01-28T09:05:41.487Z,3.74
2019-01-28T09:08:11.346Z,3.86
2019-01-28T09:10:41.657Z,3.91
2019-01-28T09:13:11.852Z,3.93
2019-01-28T09:15:41.793Z,3.92
2019-01-28T09:18:11.688Z,3.97
2019-01-28T09:20:41.501Z,3.98
2019-01-28T09:23:11.222Z,3.97
2019-01-28T09:25:41.166Z,3.97
2019-01-28T09:28:11.064Z,4.03
2019-01-28T09:30:40.803Z,4.16
2019-01-28T09:33:10.552Z,4.19
2019-01-28T09:35:40.347Z,4.09
2019-01-28T09:38:10.197Z,4.10
2019-01-28T09:40:39.968Z,4.15
2019-01-28T09:43:09.656Z,4.21
2019-01-28T09:45:41.312Z,4.27
2019-01-28T09:48:12.961Z,4.32
2019-01-28T09:50:42.754Z,4.40
2019-01-28T09:53:12.910Z,4.46
2019-01-28T09:55:43.461Z,4.60
2019-01-28T09:58:13.386Z,4.64
2019-01-28T10:00:45.763Z,4.64
2019-01-28T10:03:15.443Z,4.71
2019-01-28T10:05:45.239Z,4.84
2019-01-28T10:08:16.577Z,4.98
2019-01-28T10:10:46.514Z,5.06
2019-01-28T10:13:16.548Z,5.17
2019-01-28T10:15:46.345Z,5.18
2019-01-28T10:18:16.264Z,5.12
2019-01-28T10:20:47.226Z,5.08
2019-01-28T10:23:17.125Z,5.03
2019-01-28T10:25:46.822Z,5.02
2019-01-28T10:28:16.842Z,5.01
2019-01-28T10:30:47.611Z,5.06
2019-01-28T10:33:17.680Z,5.11
2019-01-28T10:35:48.116Z,5.24
2019-01-28T10:38:18.555Z,5.20
2019-01-28T10:40:48.523Z,5.24
2019-01-28T10:43:18.607Z,5.36
2019-01-28T10:45:49.862Z,5.45
2019-01-28T10:48:19.692Z,5.49
2019-01-28T10:50:49.475Z,5.49
2019-01-28T10:53:19.287Z,5.50
2019-01-28T10:55:49.061Z,5.42
2019-01-28T10:58:18.870Z,5.44
2019-01-28T11:00:49.001Z,5.38
2019-01-28T11:03:20.961Z,5.38
2019-01-28T11:05:50.778Z,5.44
2019-01-28T11:08:20.575Z,5.43
2019-01-28T11:10:50.387Z,5.45
2019-01-28T11:13:20.171Z,5.46
2019-01-28T11:15:49.994Z,5.49
2019-01-28T11:18:22.271Z,5.57
2019-01-28T11:20:54.028Z,5.61
2019-01-28T11:23:24.068Z,5.64
2019-01-28T11:25:53.814Z,5.60
2019-01-28T11:28:23.699Z,5.57
2019-01-28T11:30:56.824Z,5.64
2019-01-28T11:33:26.723Z,5.69
2019-01-28T11:36:04.718Z,5.78
2019-01-28T11:38:29.232Z,5.88
2019-01-28T11:40:59.289Z,5.88
2019-01-28T11:43:29.345Z,5.85
2019-01-28T11:46:01.049Z,5.85
2019-01-28T11:48:32.657Z,5.93
2019-01-28T11:51:02.454Z,6.02
2019-01-28T11:53:32.176Z,6.00
2019-01-28T11:56:01.970Z,6.04
2019-01-28T11:58:31.684Z,6.08
2019-01-28T12:01:04.028Z,6.12
2019-01-28T12:03:33.932Z,6.06
2019-01-28T12:06:03.813Z,5.93
2019-01-28T12:08:33.593Z,5.93
2019-01-28T12:11:03.438Z,5.97
2019-01-28T12:13:34.342Z,5.95
2019-01-28T12:16:04.132Z,5.99
2019-01-28T12:18:33.982Z,5.94
2019-01-28T12:21:03.874Z,5.92
2019-01-28T12:23:34.954Z,5.88
2019-01-28T12:26:05.267Z,5.81
2019-01-28T12:28:35.083Z,5.76
2019-01-28T12:31:05.231Z,5.80
2019-01-28T12:33:35.524Z,5.86
2019-01-28T12:36:06.328Z,5.84
2019-01-28T12:38:36.495Z,5.81
2019-01-28T12:41:06.507Z,5.78
2019-01-28T12:43:37.316Z,5.81
2019-01-28T12:46:07.142Z,5.85
2019-01-28T12:48:36.930Z,5.86
2019-01-28T12:51:06.885Z,5.82
2019-01-28T12:53:37.645Z,5.81
2019-01-28T12:56:07.598Z,5.82
2019-01-28T12:58:37.391Z,5.85
2019-01-28T13:01:07.296Z,5.85
2019-01-28T13:03:37.016Z,5.89
2019-01-28T13:06:06.828Z,6.19
2019-01-28T13:08:36.797Z,6.27
2019-01-28T13:11:06.815Z,6.11
2019-01-28T13:13:41.172Z,6.05
2019-01-28T13:16:09.193Z,6.17
2019-01-28T13:18:39.153Z,6.18
2019-01-28T13:21:08.962Z,6.17
2019-01-28T13:23:38.969Z,6.17
2019-01-28T13:26:08.781Z,6.17
2019-01-28T13:28:38.609Z,6.17
2019-01-28T13:31:08.480Z,6.13
2019-01-28T13:33:38.294Z,6.20
2019-01-28T13:36:09.579Z,6.24
2019-01-28T13:38:39.684Z,6.29
2019-01-28T13:41:09.489Z,6.28
2019-01-28T13:43:40.092Z,6.30
2019-01-28T13:46:09.874Z,6.35
2019-01-28T13:48:41.159Z,6.38
2019-01-28T13:51:11.205Z,6.34
2019-01-28T13:53:41.039Z,6.52
2019-01-28T13:56:10.753Z,6.37
2019-01-28T13:58:40.601Z,6.38
2019-01-28T14:01:10.410Z,6.37
2019-01-28T14:03:40.404Z,6.36
2019-01-28T14:06:11.040Z,6.26
2019-01-28T14:08:40.969Z,6.10
2019-01-28T14:11:11.590Z,5.88
2019-01-28T14:13:41.572Z,5.82
2019-01-28T14:16:11.407Z,5.74
2019-01-28T14:18:42.050Z,5.71
2019-01-28T14:21:11.819Z,5.74
2019-01-28T14:23:41.835Z,5.68
2019-01-28T14:26:11.629Z,5.64
2019-01-28T14:28:41.643Z,5.57
2019-01-28T14:31:11.761Z,5.49
2019-01-28T14:33:41.944Z,5.42
2019-01-28T14:36:12.175Z,5.38
2019-01-28T14:38:41.978Z,5.32
2019-01-28T14:41:11.951Z,5.21
2019-01-28T14:43:41.701Z,5.14
2019-01-28T14:46:11.499Z,5.08
2019-01-28T14:48:48.770Z,5.03
2019-01-28T14:51:12.860Z,5.00
2019-01-28T14:53:42.560Z,4.95
2019-01-28T14:56:12.412Z,4.88
2019-01-28T14:58:42.187Z,4.80
2019-01-28T15:01:12.101Z,4.72
2019-01-28T15:03:43.009Z,4.64
2019-01-28T15:06:12.785Z,4.63
2019-01-28T15:08:42.619Z,4.56
2019-01-28T15:11:12.540Z,4.52
2019-01-28T15:13:42.326Z,4.48
2019-01-28T15:16:12.233Z,4.42
2019-01-28T15:18:41.940Z,4.37
2019-01-28T15:21:11.899Z,4.30
2019-01-28T15:23:42.132Z,4.24
2019-01-28T15:26:11.898Z,4.18
2019-01-28T15:28:41.848Z,4.10
2019-01-28T15:31:11.746Z,4.03
2019-01-28T15:33:42.522Z,3.16
2019-01-28T15:36:12.296Z,3.93
2019-01-28T15:38:42.185Z,3.89
2019-01-28T15:41:12.158Z,3.82
2019-01-28T15:43:41.987Z,3.73
2019-01-28T15:46:11.725Z,3.66
2019-01-28T15:48:41.562Z,3.59
2019-01-28T15:51:11.560Z,3.55
2019-01-28T15:53:41.354Z,3.50
2019-01-28T15:56:11.198Z,3.46
2019-01-28T15:58:40.955Z,3.40
2019-01-28T16:01:10.658Z,3.36
2019-01-28T16:03:40.529Z,3.32
2019-01-28T16:06:10.326Z,3.30
2019-01-28T16:08:40.158Z,3.24
2019-01-28T16:11:10.160Z,3.26
2019-01-28T16:13:39.974Z,3.34
2019-01-28T16:16:09.907Z,3.29
2019-01-28T16:18:39.725Z,3.21
2019-01-28T16:21:09.550Z,3.15
2019-01-28T16:23:39.380Z,3.10
2019-01-28T16:26:09.165Z,3.06
2019-01-28T16:28:39.473Z,2.99
2019-01-28T16:31:09.722Z,2.95
2019-01-28T16:33:39.981Z,2.87
2019-01-28T16:36:09.861Z,2.82
2019-01-28T16:38:39.738Z,2.75
2019-01-28T16:41:09.553Z,2.66
2019-01-28T16:43:39.453Z,2.62
2019-01-28T16:46:09.356Z,2.59
2019-01-28T16:48:39.158Z,2.57
2019-01-28T16:51:09.026Z,2.54
2019-01-28T16:53:38.831Z,2.48
2019-01-28T16:56:08.641Z,2.44
2019-01-28T16:58:38.513Z,2.41
2019-01-28T17:01:08.353Z,2.41
2019-01-28T17:03:38.176Z,2.37
2019-01-28T17:06:07.997Z,2.39
2019-01-28T17:08:37.825Z,2.39
2019-01-28T17:11:07.670Z,2.38
2019-01-28T17:13:37.502Z,2.39
2019-01-28T17:16:07.333Z,2.42
2019-01-28T17:18:37.136Z,2.45
2019-01-28T17:21:06.969Z,2.47
2019-01-28T17:23:36.783Z,2.47
2019-01-28T17:26:06.798Z,2.45
2019-01-28T17:28:36.901Z,2.44
2019-01-28T17:31:07.850Z,2.44
2019-01-28T17:33:39.137Z,2.39
2019-01-28T17:36:09.104Z,2.34
2019-01-28T17:38:38.933Z,2.33
2019-01-28T17:41:09.089Z,2.46
2019-01-28T17:43:38.918Z,2.87
2019-01-28T17:46:08.745Z,2.91
2019-01-28T17:48:39.099Z,2.93
2019-01-28T17:51:08.942Z,2.89
2019-01-28T17:53:38.754Z,2.84
2019-01-28T17:56:08.633Z,2.82
2019-01-28T17:58:40.459Z,2.76
2019-01-28T18:01:10.364Z,2.73
2019-01-28T18:03:40.281Z,2.70
2019-01-28T18:06:10.105Z,2.67
2019-01-28T18:08:41.010Z,2.67
2019-01-28T18:11:10.974Z,2.64
2019-01-28T18:13:40.814Z,2.64
2019-01-28T18:16:10.661Z,2.63
2019-01-28T18:18:40.413Z,2.59
2019-01-28T18:21:10.251Z,2.57
2019-01-28T18:23:44.342Z,2.57
2019-01-28T18:26:14.893Z,2.54
2019-01-28T18:28:45.125Z,2.53
2019-01-28T18:31:15.441Z,2.54
2019-01-28T18:33:45.271Z,2.49
2019-01-28T18:36:15.214Z,2.44
2019-01-28T18:38:45.114Z,2.44
2019-01-28T18:41:16.061Z,2.46
2019-01-28T18:43:45.921Z,2.44
2019-01-28T18:46:15.793Z,2.43
2019-01-28T18:48:45.652Z,2.49
2019-01-28T18:51:15.516Z,2.68
2019-01-28T18:53:45.510Z,2.82
2019-01-28T18:56:15.452Z,2.77
2019-01-28T18:58:45.557Z,2.71
2019-01-28T19:01:15.373Z,2.66
2019-01-28T19:03:45.568Z,2.61
2019-01-28T19:06:17.970Z,2.57
2019-01-28T19:08:49.713Z,2.54
2019-01-28T19:11:21.339Z,2.54
2019-01-28T19:14:01.416Z,2.54
2019-01-28T19:16:51.233Z,2.53
2019-01-28T19:19:23.184Z,2.51
2019-01-28T19:21:54.620Z,2.49
2019-01-28T19:24:24.459Z,2.51
2019-01-28T19:26:54.532Z,2.47
2019-01-28T19:29:24.484Z,2.44
2019-01-28T19:31:54.269Z,2.42
2019-01-28T19:34:24.066Z,2.41
2019-01-28T19:36:54.133Z,2.42
2019-01-28T19:39:24.131Z,2.41
2019-01-28T19:41:55.481Z,2.41
2019-01-28T19:44:25.502Z,2.38
2019-01-28T19:46:55.455Z,2.36
2019-01-28T19:49:25.282Z,2.35
2019-01-28T19:51:55.327Z,2.35
2019-01-28T19:54:25.134Z,2.37
2019-01-28T19:56:56.031Z,2.35
2019-01-28T19:59:26.055Z,2.35
2019-01-28T20:01:55.900Z,2.34
2019-01-28T20:04:25.709Z,2.32
2019-01-28T20:06:55.883Z,2.27
2019-01-28T20:09:25.703Z,2.41
2019-01-28T20:11:55.754Z,2.36
2019-01-28T20:14:25.878Z,2.31
2019-01-28T20:16:56.071Z,2.30
2019-01-28T20:19:25.938Z,2.20
2019-01-28T20:21:55.989Z,2.17
2019-01-28T20:24:25.864Z,2.18
2019-01-28T20:26:56.423Z,2.22
2019-01-28T20:29:26.289Z,2.24
2019-01-28T20:31:56.067Z,2.18
2019-01-28T20:34:25.895Z,2.14
2019-01-28T20:36:55.715Z,2.13
2019-01-28T20:39:25.528Z,2.12
2019-01-28T20:41:55.352Z,2.09
2019-01-28T20:44:25.134Z,2.09
2019-01-28T20:46:55.052Z,2.10
2019-01-28T20:49:24.945Z,1.51
2019-01-28T20:51:54.729Z,2.13
2019-01-28T20:54:25.719Z,2.08
2019-01-28T20:56:55.523Z,2.00
2019-01-28T20:59:25.373Z,2.20
2019-01-28T21:01:55.299Z,2.21
2019-01-28T21:04:25.180Z,2.11
2019-01-28T21:06:55.126Z,2.00
2019-01-28T21:09:25.059Z,1.95
2019-01-28T21:11:54.936Z,1.96
2019-01-28T21:14:24.765Z,1.99
2019-01-28T21:16:54.577Z,2.01
2019-01-28T21:19:24.441Z,2.01
2019-01-28T21:21:54.277Z,1.99
2019-01-28T21:24:24.113Z,1.96
2019-01-28T21:26:56.242Z,1.97
2019-01-28T21:29:26.052Z,1.98
2019-01-28T21:31:55.853Z,1.98
2019-01-28T21:34:25.672Z,1.97
2019-01-28T21:36:58.047Z,1.92
2019-01-28T21:39:28.095Z,1.90
2019-01-28T21:41:57.909Z,1.81
2019-01-28T21:44:28.111Z,1.79
2019-01-28T21:46:57.922Z,1.78
2019-01-28T21:49:27.909Z,1.72
2019-01-28T21:51:57.914Z,1.72
2019-01-28T21:54:30.717Z,1.72
2019-01-28T21:57:00.536Z,1.72
2019-01-28T21:59:30.435Z,1.72
2019-01-28T22:02:00.249Z,1.71
2019-01-28T22:04:29.970Z,1.69
2019-01-28T22:06:59.803Z,1.73
2019-01-28T22:09:30.811Z,1.75
2019-01-28T22:12:00.726Z,1.75
2019-01-28T22:14:30.489Z,1.71
2019-01-28T22:17:00.312Z,1.70
2019-01-28T22:19:30.157Z,1.73
2019-01-28T22:21:59.957Z,1.76
2019-01-28T22:24:29.785Z,1.72
2019-01-28T22:26:59.509Z,1.75
2019-01-28T22:29:29.312Z,1.76
2019-01-28T22:31:59.072Z,1.78
2019-01-28T22:34:28.790Z,1.79
2019-01-28T22:36:58.514Z,1.81
2019-01-28T22:39:28.382Z,1.80
2019-01-28T22:41:58.187Z,1.81
2019-01-28T22:44:27.873Z,1.88
2019-01-28T22:46:57.536Z,1.78
2019-01-28T22:49:27.719Z,1.49
2019-01-28T22:51:57.557Z,1.54
2019-01-28T22:54:27.255Z,1.50
2019-01-28T22:56:57.050Z,1.48
2019-01-28T22:59:27.030Z,1.52
2019-01-28T23:01:56.823Z,1.55
2019-01-28T23:04:26.618Z,1.55
2019-01-28T23:06:56.455Z,1.56
2019-01-28T23:09:26.232Z,1.61
2019-01-28T23:11:56.046Z,1.62
2019-01-28T23:14:25.877Z,1.55
2019-01-28T23:16:55.595Z,1.53
2019-01-28T23:19:25.455Z,1.51
2019-01-28T23:21:55.302Z,1.58
2019-01-28T23:24:25.095Z,1.44
2019-01-28T23:26:54.962Z,1.38
2019-01-28T23:29:24.666Z,1.37
2019-01-28T23:31:54.366Z,1.37
2019-01-28T23:34:24.217Z,1.43
2019-01-28T23:36:54.010Z,1.43
2019-01-28T23:39:23.989Z,1.50
2019-01-28T23:41:54.228Z,1.46
2019-01-28T23:44:24.017Z,1.40
2019-01-28T23:46:53.993Z,1.40
2019-01-28T23:49:23.806Z,1.36
2019-01-28T23:51:53.891Z,1.36
2019-01-28T23:54:23.707Z,1.36
2019-01-28T23:56:53.598Z,1.36
2019-01-28T23:59:23.369Z,1.43
